sensor_id;sensor_type;location;lat;lon;timestamp;P1;durP1;ratioP1;P2;durP2;ratioP2
66371;SDS011;53168;51.146;17.120;2023-04-30T10:43:36;6.30;;;2.70;;
66371;SDS011;53168;51.146;17.120;2023-04-30T11:56:05;4.40;;;1.70;;
66371;SDS011;53168;51.146;17.120;2023-04-30T11:58:39;4.20;;;2.00;;
66371;SDS011;53168;51.146;17.120;2023-04-30T12:01:12;3.60;;;1.60;;
66371;SDS011;53168;51.146;17.120;2023-04-30T12:03:46;4.90;;;1.90;;
66371;SDS011;53168;51.146;17.120;2023-04-30T12:06:23;4.60;;;1.80;;
66371;SDS011;53168;51.146;17.120;2023-04-30T12:08:59;5.60;;;2.10;;
66371;SDS011;53168;51.146;17.120;2023-04-30T12:11:38;5.30;;;2.40;;
66371;SDS011;53168;51.146;17.120;2023-04-30T12:14:11;4.60;;;2.20;;
66371;SDS011;53168;51.146;17.120;2023-04-30T12:16:46;5.10;;;1.60;;
66371;SDS011;53168;51.146;17.120;2023-04-30T12:19:22;4.70;;;1.80;;
66371;SDS011;53168;51.146;17.120;2023-04-30T12:21:55;7.30;;;2.20;;
66371;SDS011;53168;51.146;17.120;2023-04-30T12:24:28;4.30;;;1.80;;
66371;SDS011;53168;51.146;17.120;2023-04-30T12:27:02;5.60;;;2.00;;
66371;SDS011;53168;51.146;17.120;2023-04-30T12:29:35;5.90;;;1.70;;
66371;SDS011;53168;51.146;17.120;2023-04-30T12:32:14;6.50;;;1.60;;
66371;SDS011;53168;51.146;17.120;2023-04-30T12:34:49;7.00;;;2.00;;
66371;SDS011;53168;51.146;17.120;2023-04-30T12:37:28;5.40;;;1.70;;
66371;SDS011;53168;51.146;17.120;2023-04-30T12:40:01;3.70;;;1.30;;
66371;SDS011;53168;51.146;17.120;2023-04-30T12:42:37;3.70;;;1.40;;
66371;SDS011;53168;51.146;17.120;2023-04-30T12:45:14;3.40;;;1.10;;
66371;SDS011;53168;51.146;17.120;2023-04-30T12:48:18;3.30;;;1.20;;
66371;SDS011;53168;51.146;17.120;2023-04-30T12:50:54;4.30;;;1.30;;
66371;SDS011;53168;51.146;17.120;2023-04-30T12:53:30;5.50;;;1.90;;
66371;SDS011;53168;51.146;17.120;2023-04-30T12:56:11;2.40;;;1.00;;
66371;SDS011;53168;51.146;17.120;2023-04-30T12:58:47;5.00;;;1.20;;
66371;SDS011;53168;51.146;17.120;2023-04-30T13:01:21;4.40;;;1.00;;
66371;SDS011;53168;51.146;17.120;2023-04-30T13:03:55;5.30;;;1.50;;
66371;SDS011;53168;51.146;17.120;2023-04-30T13:06:29;5.60;;;1.30;;
66371;SDS011;53168;51.146;17.120;2023-04-30T13:09:02;5.60;;;1.50;;
66371;SDS011;53168;51.146;17.120;2023-04-30T13:11:36;4.20;;;1.30;;
66371;SDS011;53168;51.146;17.120;2023-04-30T13:14:09;4.20;;;1.40;;
66371;SDS011;53168;51.146;17.120;2023-04-30T13:17:03;4.40;;;1.50;;
66371;SDS011;53168;51.146;17.120;2023-04-30T13:19:39;3.10;;;1.00;;
66371;SDS011;53168;51.146;17.120;2023-04-30T13:22:12;4.30;;;1.50;;
66371;SDS011;53168;51.146;17.120;2023-04-30T13:24:45;3.70;;;1.30;;
66371;SDS011;53168;51.146;17.120;2023-04-30T13:27:18;3.60;;;1.10;;
66371;SDS011;53168;51.146;17.120;2023-04-30T13:29:52;4.90;;;1.40;;
66371;SDS011;53168;51.146;17.120;2023-04-30T13:32:25;4.80;;;1.70;;
66371;SDS011;53168;51.146;17.120;2023-04-30T13:34:59;5.00;;;1.80;;
66371;SDS011;53168;51.146;17.120;2023-04-30T13:37:32;3.40;;;1.10;;
66371;SDS011;53168;51.146;17.120;2023-04-30T13:40:09;5.20;;;1.40;;
66371;SDS011;53168;51.146;17.120;2023-04-30T13:42:46;3.90;;;1.20;;
66371;SDS011;53168;51.146;17.120;2023-04-30T13:45:19;5.10;;;1.50;;
66371;SDS011;53168;51.146;17.120;2023-04-30T13:47:52;4.20;;;1.40;;
66371;SDS011;53168;51.146;17.120;2023-04-30T13:50:27;6.40;;;1.50;;
66371;SDS011;53168;51.146;17.120;2023-04-30T13:53:00;16.70;;;1.70;;
66371;SDS011;53168;51.146;17.120;2023-04-30T13:55:34;4.90;;;1.50;;
66371;SDS011;53168;51.146;17.120;2023-04-30T13:58:07;4.70;;;1.90;;
66371;SDS011;53168;51.146;17.120;2023-04-30T14:00:40;6.20;;;2.00;;
66371;SDS011;53168;51.146;17.120;2023-04-30T14:03:14;5.00;;;1.60;;
66371;SDS011;53168;51.146;17.120;2023-04-30T14:05:47;6.40;;;2.30;;
66371;SDS011;53168;51.146;17.120;2023-04-30T14:08:20;3.60;;;1.40;;
66371;SDS011;53168;51.146;17.120;2023-04-30T14:10:53;4.30;;;1.10;;
66371;SDS011;53168;51.146;17.120;2023-04-30T14:13:26;3.60;;;1.40;;
66371;SDS011;53168;51.146;17.120;2023-04-30T14:15:59;6.30;;;1.80;;
66371;SDS011;53168;51.146;17.120;2023-04-30T14:18:33;8.40;;;4.20;;
66371;SDS011;53168;51.146;17.120;2023-04-30T14:21:06;8.50;;;3.10;;
66371;SDS011;53168;51.146;17.120;2023-04-30T14:23:40;6.80;;;1.50;;
66371;SDS011;53168;51.146;17.120;2023-04-30T14:26:16;5.10;;;1.60;;
66371;SDS011;53168;51.146;17.120;2023-04-30T14:28:49;4.40;;;1.50;;
66371;SDS011;53168;51.146;17.120;2023-04-30T14:31:22;4.10;;;1.30;;
66371;SDS011;53168;51.146;17.120;2023-04-30T14:33:56;5.40;;;2.20;;
66371;SDS011;53168;51.146;17.120;2023-04-30T14:36:29;3.90;;;1.70;;
66371;SDS011;53168;51.146;17.120;2023-04-30T14:39:04;4.30;;;1.60;;
66371;SDS011;53168;51.146;17.120;2023-04-30T14:41:38;4.70;;;1.80;;
66371;SDS011;53168;51.146;17.120;2023-04-30T14:44:11;4.20;;;1.60;;
66371;SDS011;53168;51.146;17.120;2023-04-30T14:46:44;4.20;;;1.30;;
66371;SDS011;53168;51.146;17.120;2023-04-30T14:49:17;5.00;;;1.50;;
66371;SDS011;53168;51.146;17.120;2023-04-30T14:51:51;5.30;;;1.50;;
66371;SDS011;53168;51.146;17.120;2023-04-30T14:54:24;5.40;;;1.00;;
66371;SDS011;53168;51.146;17.120;2023-04-30T14:56:57;5.40;;;1.10;;
66371;SDS011;53168;51.146;17.120;2023-04-30T14:59:30;4.30;;;1.30;;
66371;SDS011;53168;51.146;17.120;2023-04-30T15:02:05;4.40;;;1.70;;
66371;SDS011;53168;51.146;17.120;2023-04-30T15:04:39;3.30;;;1.20;;
66371;SDS011;53168;51.146;17.120;2023-04-30T15:07:15;4.00;;;1.20;;
66371;SDS011;53168;51.146;17.120;2023-04-30T15:09:49;5.10;;;1.10;;
66371;SDS011;53168;51.146;17.120;2023-04-30T15:12:23;4.50;;;1.70;;
66371;SDS011;53168;51.146;17.120;2023-04-30T15:14:56;3.90;;;1.80;;
66371;SDS011;53168;51.146;17.120;2023-04-30T15:17:29;4.10;;;1.50;;
66371;SDS011;53168;51.146;17.120;2023-04-30T15:20:08;3.80;;;1.60;;
66371;SDS011;53168;51.146;17.120;2023-04-30T15:22:43;4.20;;;1.30;;
66371;SDS011;53168;51.146;17.120;2023-04-30T15:25:16;5.60;;;1.60;;
66371;SDS011;53168;51.146;17.120;2023-04-30T15:27:51;6.90;;;1.30;;
66371;SDS011;53168;51.146;17.120;2023-04-30T15:30:25;6.60;;;1.50;;
66371;SDS011;53168;51.146;17.120;2023-04-30T15:32:58;5.80;;;1.10;;
66371;SDS011;53168;51.146;17.120;2023-04-30T15:35:31;4.30;;;1.50;;
66371;SDS011;53168;51.146;17.120;2023-04-30T15:38:05;4.00;;;1.20;;
66371;SDS011;53168;51.146;17.120;2023-04-30T15:40:38;4.30;;;1.70;;
66371;SDS011;53168;51.146;17.120;2023-04-30T15:43:11;5.90;;;1.80;;
66371;SDS011;53168;51.146;17.120;2023-04-30T15:45:46;5.10;;;2.00;;
66371;SDS011;53168;51.146;17.120;2023-04-30T15:48:19;3.40;;;1.60;;
66371;SDS011;53168;51.146;17.120;2023-04-30T15:50:52;8.10;;;2.90;;
66371;SDS011;53168;51.146;17.120;2023-04-30T15:53:26;5.60;;;1.80;;
66371;SDS011;53168;51.146;17.120;2023-04-30T15:56:00;5.30;;;1.60;;
66371;SDS011;53168;51.146;17.120;2023-04-30T15:58:33;4.40;;;2.00;;
66371;SDS011;53168;51.146;17.120;2023-04-30T16:01:07;4.90;;;1.60;;
66371;SDS011;53168;51.146;17.120;2023-04-30T16:03:40;5.20;;;1.50;;
66371;SDS011;53168;51.146;17.120;2023-04-30T16:06:14;5.60;;;1.90;;
66371;SDS011;53168;51.146;17.120;2023-04-30T16:08:48;5.80;;;2.10;;
66371;SDS011;53168;51.146;17.120;2023-04-30T16:11:22;5.90;;;1.80;;
66371;SDS011;53168;51.146;17.120;2023-04-30T16:13:56;6.80;;;1.90;;
66371;SDS011;53168;51.146;17.120;2023-04-30T16:16:29;5.80;;;2.00;;
66371;SDS011;53168;51.146;17.120;2023-04-30T16:19:02;5.70;;;1.80;;
66371;SDS011;53168;51.146;17.120;2023-04-30T16:21:37;6.10;;;2.00;;
66371;SDS011;53168;51.146;17.120;2023-04-30T16:24:11;4.50;;;2.00;;
66371;SDS011;53168;51.146;17.120;2023-04-30T16:26:45;5.90;;;1.90;;
66371;SDS011;53168;51.146;17.120;2023-04-30T16:29:18;5.10;;;1.90;;
66371;SDS011;53168;51.146;17.120;2023-04-30T16:31:52;5.80;;;2.30;;
66371;SDS011;53168;51.146;17.120;2023-04-30T16:34:26;4.90;;;2.00;;
66371;SDS011;53168;51.146;17.120;2023-04-30T16:36:59;4.70;;;1.90;;
66371;SDS011;53168;51.146;17.120;2023-04-30T16:39:33;5.90;;;2.10;;
66371;SDS011;53168;51.146;17.120;2023-04-30T16:42:07;4.00;;;1.70;;
66371;SDS011;53168;51.146;17.120;2023-04-30T16:44:41;5.00;;;2.30;;
66371;SDS011;53168;51.146;17.120;2023-04-30T16:47:23;5.50;;;1.60;;
66371;SDS011;53168;51.146;17.120;2023-04-30T16:49:57;5.80;;;2.50;;
66371;SDS011;53168;51.146;17.120;2023-04-30T16:52:30;4.70;;;2.10;;
66371;SDS011;53168;51.146;17.120;2023-04-30T16:55:05;5.60;;;1.50;;
66371;SDS011;53168;51.146;17.120;2023-04-30T16:57:40;5.40;;;1.80;;
66371;SDS011;53168;51.146;17.120;2023-04-30T17:00:15;4.50;;;1.60;;
66371;SDS011;53168;51.146;17.120;2023-04-30T17:02:48;5.40;;;2.20;;
66371;SDS011;53168;51.146;17.120;2023-04-30T17:05:23;4.70;;;1.70;;
66371;SDS011;53168;51.146;17.120;2023-04-30T17:07:56;5.10;;;1.80;;
66371;SDS011;53168;51.146;17.120;2023-04-30T17:10:30;6.60;;;2.20;;
66371;SDS011;53168;51.146;17.120;2023-04-30T17:13:03;5.90;;;2.30;;
66371;SDS011;53168;51.146;17.120;2023-04-30T17:15:36;5.50;;;1.80;;
66371;SDS011;53168;51.146;17.120;2023-04-30T17:18:09;5.70;;;1.90;;
66371;SDS011;53168;51.146;17.120;2023-04-30T17:20:44;4.40;;;1.90;;
66371;SDS011;53168;51.146;17.120;2023-04-30T17:23:19;5.70;;;1.80;;
66371;SDS011;53168;51.146;17.120;2023-04-30T17:25:52;5.10;;;1.90;;
66371;SDS011;53168;51.146;17.120;2023-04-30T17:28:25;5.00;;;1.70;;
66371;SDS011;53168;51.146;17.120;2023-04-30T17:30:59;4.90;;;1.90;;
66371;SDS011;53168;51.146;17.120;2023-04-30T17:33:36;5.30;;;2.10;;
66371;SDS011;53168;51.146;17.120;2023-04-30T17:36:11;6.90;;;2.00;;
66371;SDS011;53168;51.146;17.120;2023-04-30T17:38:44;4.10;;;1.90;;
66371;SDS011;53168;51.146;17.120;2023-04-30T17:41:17;5.30;;;1.90;;
66371;SDS011;53168;51.146;17.120;2023-04-30T17:56:01;3.80;;;1.60;;
66371;SDS011;53168;51.146;17.120;2023-04-30T17:58:35;4.20;;;1.70;;
66371;SDS011;53168;51.146;17.120;2023-04-30T18:01:09;3.80;;;1.90;;
66371;SDS011;53168;51.146;17.120;2023-04-30T18:03:42;4.10;;;1.50;;
66371;SDS011;53168;51.146;17.120;2023-04-30T18:06:49;7.10;;;2.20;;
66371;SDS011;53168;51.146;17.120;2023-04-30T18:09:22;6.00;;;2.20;;
66371;SDS011;53168;51.146;17.120;2023-04-30T18:11:55;5.50;;;1.80;;
66371;SDS011;53168;51.146;17.120;2023-04-30T18:14:29;7.50;;;2.30;;
66371;SDS011;53168;51.146;17.120;2023-04-30T18:17:02;4.50;;;2.00;;
66371;SDS011;53168;51.146;17.120;2023-04-30T18:19:36;7.70;;;2.70;;
66371;SDS011;53168;51.146;17.120;2023-04-30T18:22:14;5.60;;;2.10;;
66371;SDS011;53168;51.146;17.120;2023-04-30T18:24:49;5.00;;;1.90;;
66371;SDS011;53168;51.146;17.120;2023-04-30T18:27:22;4.60;;;2.00;;
66371;SDS011;53168;51.146;17.120;2023-04-30T18:29:56;5.00;;;1.80;;
66371;SDS011;53168;51.146;17.120;2023-04-30T18:32:29;7.10;;;2.20;;
66371;SDS011;53168;51.146;17.120;2023-04-30T18:35:03;5.70;;;2.20;;
66371;SDS011;53168;51.146;17.120;2023-04-30T18:37:37;4.60;;;1.90;;
66371;SDS011;53168;51.146;17.120;2023-04-30T18:40:11;4.70;;;2.00;;
66371;SDS011;53168;51.146;17.120;2023-04-30T18:42:45;6.00;;;2.40;;
66371;SDS011;53168;51.146;17.120;2023-04-30T18:45:18;7.00;;;2.20;;
66371;SDS011;53168;51.146;17.120;2023-04-30T18:47:51;5.70;;;2.40;;
66371;SDS011;53168;51.146;17.120;2023-04-30T18:50:25;7.70;;;2.30;;
66371;SDS011;53168;51.146;17.120;2023-04-30T18:52:58;4.70;;;1.80;;
66371;SDS011;53168;51.146;17.120;2023-04-30T18:55:31;4.90;;;2.10;;
66371;SDS011;53168;51.146;17.120;2023-04-30T18:58:04;7.30;;;2.30;;
66371;SDS011;53168;51.146;17.120;2023-04-30T19:00:40;7.20;;;2.40;;
66371;SDS011;53168;51.146;17.120;2023-04-30T19:03:13;7.50;;;2.20;;
66371;SDS011;53168;51.146;17.120;2023-04-30T19:05:46;8.30;;;3.80;;
66371;SDS011;53168;51.146;17.120;2023-04-30T19:08:23;10.40;;;3.00;;
66371;SDS011;53168;51.146;17.120;2023-04-30T19:10:57;6.90;;;2.80;;
66371;SDS011;53168;51.146;17.120;2023-04-30T19:13:30;9.00;;;3.20;;
66371;SDS011;53168;51.146;17.120;2023-04-30T19:16:03;5.50;;;2.60;;
66371;SDS011;53168;51.146;17.120;2023-04-30T19:18:37;7.20;;;2.90;;
66371;SDS011;53168;51.146;17.120;2023-04-30T19:21:10;7.50;;;3.00;;
66371;SDS011;53168;51.146;17.120;2023-04-30T19:23:44;9.00;;;2.80;;
66371;SDS011;53168;51.146;17.120;2023-04-30T19:26:17;7.20;;;2.80;;
66371;SDS011;53168;51.146;17.120;2023-04-30T19:28:52;6.50;;;3.00;;
66371;SDS011;53168;51.146;17.120;2023-04-30T19:31:25;6.40;;;2.90;;
66371;SDS011;53168;51.146;17.120;2023-04-30T19:34:00;7.30;;;3.40;;
66371;SDS011;53168;51.146;17.120;2023-04-30T19:36:33;7.80;;;3.30;;
66371;SDS011;53168;51.146;17.120;2023-04-30T19:39:07;8.10;;;3.40;;
66371;SDS011;53168;51.146;17.120;2023-04-30T19:41:41;6.50;;;3.30;;
66371;SDS011;53168;51.146;17.120;2023-04-30T19:44:15;6.00;;;2.80;;
66371;SDS011;53168;51.146;17.120;2023-04-30T19:46:49;10.50;;;4.10;;
66371;SDS011;53168;51.146;17.120;2023-04-30T19:49:22;8.80;;;3.30;;
66371;SDS011;53168;51.146;17.120;2023-04-30T19:51:56;9.20;;;3.80;;
66371;SDS011;53168;51.146;17.120;2023-04-30T19:54:30;8.40;;;3.20;;
66371;SDS011;53168;51.146;17.120;2023-04-30T19:57:04;7.40;;;3.70;;
66371;SDS011;53168;51.146;17.120;2023-04-30T19:59:37;9.40;;;3.30;;
66371;SDS011;53168;51.146;17.120;2023-04-30T20:02:10;8.60;;;3.50;;
66371;SDS011;53168;51.146;17.120;2023-04-30T20:04:44;8.80;;;3.60;;
66371;SDS011;53168;51.146;17.120;2023-04-30T20:07:17;11.60;;;3.80;;
66371;SDS011;53168;51.146;17.120;2023-04-30T20:09:51;9.60;;;4.00;;
66371;SDS011;53168;51.146;17.120;2023-04-30T20:12:26;5.80;;;3.20;;
66371;SDS011;53168;51.146;17.120;2023-04-30T20:14:59;8.70;;;3.70;;
66371;SDS011;53168;51.146;17.120;2023-04-30T20:17:33;10.60;;;4.50;;
66371;SDS011;53168;51.146;17.120;2023-04-30T20:20:08;10.50;;;4.50;;
66371;SDS011;53168;51.146;17.120;2023-04-30T20:22:42;10.10;;;5.00;;
66371;SDS011;53168;51.146;17.120;2023-04-30T20:25:16;12.30;;;5.10;;
66371;SDS011;53168;51.146;17.120;2023-04-30T20:27:50;10.70;;;4.60;;
66371;SDS011;53168;51.146;17.120;2023-04-30T20:30:23;10.70;;;4.90;;
66371;SDS011;53168;51.146;17.120;2023-04-30T20:32:56;8.80;;;4.70;;
66371;SDS011;53168;51.146;17.120;2023-04-30T20:35:30;10.40;;;4.70;;
66371;SDS011;53168;51.146;17.120;2023-04-30T20:38:04;10.70;;;5.10;;
66371;SDS011;53168;51.146;17.120;2023-04-30T20:40:37;10.40;;;4.90;;
66371;SDS011;53168;51.146;17.120;2023-04-30T20:43:11;12.00;;;4.60;;
66371;SDS011;53168;51.146;17.120;2023-04-30T20:45:45;10.20;;;4.60;;
66371;SDS011;53168;51.146;17.120;2023-04-30T20:48:19;9.60;;;4.40;;
66371;SDS011;53168;51.146;17.120;2023-04-30T20:50:52;9.70;;;4.70;;
66371;SDS011;53168;51.146;17.120;2023-04-30T20:53:25;13.20;;;4.70;;
66371;SDS011;53168;51.146;17.120;2023-04-30T20:55:59;11.50;;;5.30;;
66371;SDS011;53168;51.146;17.120;2023-04-30T20:58:32;12.90;;;5.50;;
66371;SDS011;53168;51.146;17.120;2023-04-30T21:01:06;13.10;;;5.50;;
66371;SDS011;53168;51.146;17.120;2023-04-30T21:03:39;14.70;;;6.50;;
66371;SDS011;53168;51.146;17.120;2023-04-30T21:06:12;14.50;;;6.70;;
66371;SDS011;53168;51.146;17.120;2023-04-30T21:08:46;13.80;;;6.90;;
66371;SDS011;53168;51.146;17.120;2023-04-30T21:11:20;11.90;;;5.80;;
66371;SDS011;53168;51.146;17.120;2023-04-30T22:16:55;18.10;;;9.50;;
66371;SDS011;53168;51.146;17.120;2023-04-30T22:19:25;15.50;;;8.30;;
66371;SDS011;53168;51.146;17.120;2023-04-30T22:21:54;17.90;;;8.70;;
66371;SDS011;53168;51.146;17.120;2023-04-30T22:24:23;20.50;;;9.90;;
66371;SDS011;53168;51.146;17.120;2023-04-30T22:26:52;17.60;;;9.20;;
66371;SDS011;53168;51.146;17.120;2023-04-30T22:29:22;18.10;;;8.40;;
66371;SDS011;53168;51.146;17.120;2023-04-30T22:31:51;18.20;;;8.10;;
66371;SDS011;53168;51.146;17.120;2023-04-30T22:34:20;16.90;;;7.30;;
66371;SDS011;53168;51.146;17.120;2023-04-30T22:36:50;15.50;;;7.90;;
66371;SDS011;53168;51.146;17.120;2023-04-30T22:39:19;15.30;;;7.70;;
66371;SDS011;53168;51.146;17.120;2023-04-30T22:41:48;17.20;;;8.30;;
66371;SDS011;53168;51.146;17.120;2023-04-30T22:44:18;17.80;;;9.20;;
66371;SDS011;53168;51.146;17.120;2023-04-30T22:46:47;20.70;;;9.30;;
66371;SDS011;53168;51.146;17.120;2023-04-30T22:49:17;19.60;;;8.90;;
66371;SDS011;53168;51.146;17.120;2023-04-30T22:51:58;16.30;;;8.30;;
66371;SDS011;53168;51.146;17.120;2023-04-30T22:54:27;18.90;;;8.30;;
66371;SDS011;53168;51.146;17.120;2023-04-30T22:56:57;16.90;;;8.00;;
66371;SDS011;53168;51.146;17.120;2023-04-30T22:59:26;15.80;;;7.70;;
66371;SDS011;53168;51.146;17.120;2023-04-30T23:01:55;16.10;;;7.40;;
66371;SDS011;53168;51.146;17.120;2023-04-30T23:04:24;16.90;;;7.00;;
66371;SDS011;53168;51.146;17.120;2023-04-30T23:06:55;15.30;;;7.20;;
66371;SDS011;53168;51.146;17.120;2023-04-30T23:09:24;14.80;;;6.70;;
66371;SDS011;53168;51.146;17.120;2023-04-30T23:11:53;14.90;;;7.40;;
66371;SDS011;53168;51.146;17.120;2023-04-30T23:14:22;19.50;;;8.90;;
66371;SDS011;53168;51.146;17.120;2023-04-30T23:16:52;22.00;;;9.80;;
66371;SDS011;53168;51.146;17.120;2023-04-30T23:19:22;22.60;;;9.60;;
66371;SDS011;53168;51.146;17.120;2023-04-30T23:21:51;19.60;;;10.00;;
66371;SDS011;53168;51.146;17.120;2023-04-30T23:24:20;20.20;;;9.30;;
66371;SDS011;53168;51.146;17.120;2023-04-30T23:26:49;20.10;;;9.10;;
66371;SDS011;53168;51.146;17.120;2023-04-30T23:29:19;22.00;;;8.90;;
66371;SDS011;53168;51.146;17.120;2023-04-30T23:31:48;17.40;;;8.90;;
66371;SDS011;53168;51.146;17.120;2023-04-30T23:34:17;13.50;;;7.20;;
66371;SDS011;53168;51.146;17.120;2023-04-30T23:36:47;15.60;;;7.20;;
66371;SDS011;53168;51.146;17.120;2023-04-30T23:39:16;15.50;;;7.70;;
66371;SDS011;53168;51.146;17.120;2023-04-30T23:41:45;19.20;;;8.70;;
66371;SDS011;53168;51.146;17.120;2023-04-30T23:44:14;22.70;;;9.20;;
66371;SDS011;53168;51.146;17.120;2023-04-30T23:46:43;18.60;;;8.40;;
66371;SDS011;53168;51.146;17.120;2023-04-30T23:49:13;12.70;;;6.00;;
66371;SDS011;53168;51.146;17.120;2023-04-30T23:51:44;12.80;;;6.00;;
66371;SDS011;53168;51.146;17.120;2023-04-30T23:54:13;19.10;;;7.40;;
66371;SDS011;53168;51.146;17.120;2023-04-30T23:56:42;15.20;;;7.30;;
66371;SDS011;53168;51.146;17.120;2023-04-30T23:59:12;18.50;;;8.40;;
